createdAt,value
2017-09-11T00:00:44.798Z,68.94
2017-09-11T00:01:44.788Z,68.46
2017-09-11T00:02:44.776Z,68.36
2017-09-11T00:03:44.763Z,68.36
2017-09-11T00:04:45.065Z,68.84
2017-09-11T00:05:44.749Z,68.94
2017-09-11T00:06:44.738Z,69.03
2017-09-11T00:07:44.726Z,69.03
2017-09-11T00:08:44.719Z,69.13
2017-09-11T00:09:44.706Z,68.94
2017-09-11T00:10:44.725Z,68.94
2017-09-11T00:11:44.702Z,69.13
2017-09-11T00:12:44.678Z,68.17
2017-09-11T00:13:44.679Z,68.46
2017-09-11T00:14:44.657Z,68.46
2017-09-11T00:15:45.078Z,68.84
2017-09-11T00:16:44.639Z,68.36
2017-09-11T00:17:44.630Z,68.17
2017-09-11T00:18:44.616Z,68.74
2017-09-11T00:19:44.614Z,68.84
2017-09-11T00:20:44.600Z,68.27
2017-09-11T00:21:44.901Z,68.55
2017-09-11T00:22:44.577Z,68.36
2017-09-11T00:23:44.571Z,68.30
2017-09-11T00:24:44.565Z,68.65
2017-09-11T00:25:44.553Z,68.84
2017-09-11T00:26:44.541Z,68.55
2017-09-11T00:27:44.561Z,67.88
2017-09-11T00:28:44.522Z,68.27
2017-09-11T00:29:44.515Z,68.55
2017-09-11T00:30:44.499Z,68.17
2017-09-11T00:31:44.491Z,68.17
2017-09-11T00:32:44.846Z,68.27
2017-09-11T00:33:44.474Z,68.46
2017-09-11T00:34:44.459Z,68.27
2017-09-11T00:35:44.462Z,68.36
2017-09-11T00:36:44.440Z,68.36
2017-09-11T00:37:44.432Z,68.46
2017-09-11T00:38:44.768Z,68.36
2017-09-11T00:39:44.414Z,68.27
2017-09-11T00:40:44.402Z,68.36
2017-09-11T00:41:44.395Z,68.55
2017-09-11T00:42:44.398Z,68.46
2017-09-11T00:43:44.378Z,68.55
2017-09-11T00:44:44.804Z,68.36
2017-09-11T00:45:44.356Z,68.27
2017-09-11T00:46:44.344Z,68.36
2017-09-11T00:47:44.331Z,68.84
2017-09-11T00:48:44.329Z,68.27
2017-09-11T00:49:44.325Z,68.27
2017-09-11T00:50:44.340Z,69.03
2017-09-11T00:51:44.293Z,68.74
2017-09-11T00:52:44.502Z,68.36
2017-09-11T00:53:44.280Z,68.65
2017-09-11T00:54:44.269Z,68.65
2017-09-11T00:55:44.257Z,68.94
2017-09-11T00:56:44.247Z,68.94
2017-09-11T00:57:44.242Z,68.94
2017-09-11T00:58:44.533Z,68.74
2017-09-11T00:59:44.219Z,68.17
2017-09-11T01:00:44.217Z,68.36
2017-09-11T01:01:44.193Z,69.03
2017-09-11T01:02:44.203Z,69.03
2017-09-11T01:03:44.176Z,68.74
2017-09-11T01:04:44.603Z,68.74
2017-09-11T01:05:44.156Z,69.03
2017-09-11T01:06:44.145Z,68.74
2017-09-11T01:07:44.133Z,67.98
2017-09-11T01:08:44.125Z,68.55
2017-09-11T01:09:44.122Z,68.27
2017-09-11T01:10:44.419Z,68.94
2017-09-11T01:11:44.103Z,68.94
2017-09-11T01:12:44.086Z,68.94
2017-09-11T01:13:44.078Z,68.74
2017-09-11T01:14:44.063Z,69.23
2017-09-11T01:15:44.066Z,69.32
2017-09-11T01:16:44.079Z,69.42
2017-09-11T01:17:44.035Z,69.23
2017-09-11T01:18:44.026Z,69.03
2017-09-11T01:19:44.442Z,68.17
2017-09-11T01:20:44.004Z,68.94
2017-09-11T01:21:44.006Z,68.36
2017-09-11T01:22:43.982Z,69.03
2017-09-11T01:23:43.982Z,68.65
2017-09-11T01:24:43.971Z,68.65
2017-09-11T01:25:43.987Z,69.03
2017-09-11T01:26:43.945Z,68.94
2017-09-11T01:27:43.936Z,69.32
2017-09-11T01:28:43.936Z,69.03
2017-09-11T01:29:43.943Z,68.94
2017-09-11T01:30:43.911Z,69.23
2017-09-11T01:31:43.894Z,69.29
2017-09-11T01:32:43.882Z,69.32
2017-09-11T01:33:43.888Z,69.48
2017-09-11T01:34:44.167Z,69.60
2017-09-11T01:35:43.869Z,69.99
2017-09-11T01:36:43.855Z,69.42
2017-09-11T01:37:43.859Z,69.42
2017-09-11T01:38:43.824Z,69.32
2017-09-11T01:39:43.814Z,69.38
2017-09-11T01:40:44.120Z,69.42
2017-09-11T01:41:43.798Z,69.51
2017-09-11T01:42:43.798Z,69.32
2017-09-11T01:43:43.772Z,69.51
2017-09-11T01:44:43.772Z,69.23
2017-09-11T01:45:43.756Z,69.60
2017-09-11T01:46:44.101Z,69.51
2017-09-11T01:47:43.736Z,70.09
2017-09-11T01:48:43.735Z,69.03
2017-09-11T01:49:43.721Z,69.00
2017-09-11T01:50:43.705Z,69.19
2017-09-11T01:51:43.702Z,69.42
2017-09-11T01:52:44.044Z,69.48
2017-09-11T01:53:43.682Z,69.29
2017-09-11T01:54:43.674Z,69.19
2017-09-11T01:55:43.655Z,69.38
2017-09-11T01:56:43.652Z,69.38
2017-09-11T01:57:43.639Z,70.05
2017-09-11T01:58:44.014Z,69.76
2017-09-11T01:59:43.617Z,70.15
2017-09-11T02:00:43.604Z,70.34
2017-09-11T02:01:43.611Z,70.53
2017-09-11T02:02:43.583Z,70.43
2017-09-11T02:03:43.574Z,70.91
2017-09-11T02:04:43.995Z,71.11
2017-09-11T02:05:43.558Z,70.53
2017-09-11T02:06:43.549Z,70.72
2017-09-11T02:07:43.532Z,70.62
2017-09-11T02:08:43.526Z,70.72
2017-09-11T02:09:43.514Z,71.11
2017-09-11T02:10:43.528Z,71.11
2017-09-11T02:11:43.493Z,70.95
2017-09-11T02:12:43.484Z,71.14
2017-09-11T02:13:43.475Z,71.14
2017-09-11T02:14:43.489Z,71.04
2017-09-11T02:15:43.457Z,71.23
2017-09-11T02:16:43.445Z,70.37
2017-09-11T02:17:43.447Z,70.53
2017-09-11T02:18:43.422Z,70.34
2017-09-11T02:19:43.841Z,70.56
2017-09-11T02:20:43.401Z,70.66
2017-09-11T02:21:43.397Z,70.09
2017-09-11T02:22:43.378Z,70.15
2017-09-11T02:23:43.374Z,70.37
2017-09-11T02:24:43.361Z,70.28
2017-09-11T02:25:43.671Z,70.91
2017-09-11T02:26:43.341Z,70.47
2017-09-11T02:27:43.341Z,70.76
2017-09-11T02:28:43.322Z,71.04
2017-09-11T02:29:43.313Z,70.37
2017-09-11T02:30:43.304Z,70.43
2017-09-11T02:31:43.611Z,70.66
2017-09-11T02:32:43.283Z,70.47
2017-09-11T02:33:43.282Z,71.23
2017-09-11T02:34:43.263Z,70.76
2017-09-11T02:35:43.265Z,70.85
2017-09-11T02:36:43.244Z,71.14
2017-09-11T02:37:43.526Z,70.95
2017-09-11T02:38:43.221Z,70.85
2017-09-11T02:39:43.209Z,71.42
2017-09-11T02:40:43.203Z,71.52
2017-09-11T02:41:43.192Z,71.42
2017-09-11T02:42:43.197Z,71.42
2017-09-11T02:43:43.528Z,71.23
2017-09-11T02:44:43.169Z,71.23
2017-09-11T02:45:43.150Z,71.23
2017-09-11T02:46:43.145Z,71.33
2017-09-11T02:47:43.134Z,71.42
2017-09-11T02:48:43.125Z,72.09
2017-09-11T02:49:43.445Z,72.48
2017-09-11T02:50:43.098Z,72.44
2017-09-11T02:51:43.090Z,72.48
2017-09-11T02:52:43.077Z,72.63
2017-09-11T02:53:43.086Z,72.58
2017-09-11T02:54:43.061Z,72.96
2017-09-11T02:55:43.395Z,72.96
2017-09-11T02:56:43.042Z,73.11
2017-09-11T02:57:43.033Z,73.11
2017-09-11T02:58:43.018Z,73.11
2017-09-11T02:59:43.027Z,73.02
2017-09-11T03:00:42.996Z,73.30
2017-09-11T03:01:43.213Z,73.69
2017-09-11T03:02:42.978Z,73.02
2017-09-11T03:03:42.975Z,73.59
2017-09-11T03:04:42.964Z,73.50
2017-09-11T03:05:42.953Z,73.59
2017-09-11T03:06:42.940Z,74.07
2017-09-11T03:07:42.970Z,74.26
2017-09-11T03:08:42.927Z,74.16
2017-09-11T03:09:42.911Z,73.59
2017-09-11T03:10:42.901Z,74.16
2017-09-11T03:11:42.894Z,74.65
2017-09-11T03:12:42.916Z,73.69
2017-09-11T03:13:42.879Z,74.36
2017-09-11T03:14:42.860Z,74.55
2017-09-11T03:15:42.850Z,74.36
2017-09-11T03:16:42.841Z,74.74
2017-09-11T03:17:43.125Z,74.84
2017-09-11T03:18:42.827Z,75.02
2017-09-11T03:19:42.810Z,74.74
2017-09-11T03:20:42.797Z,75.22
2017-09-11T03:21:42.788Z,75.51
2017-09-11T03:22:42.780Z,75.51
2017-09-11T03:23:42.795Z,75.22
2017-09-11T03:24:42.767Z,75.31
2017-09-11T03:25:42.752Z,75.70
2017-09-11T03:26:42.751Z,75.41
2017-09-11T03:27:42.725Z,75.41
2017-09-11T03:28:42.752Z,75.41
2017-09-11T03:29:42.702Z,75.12
2017-09-11T03:30:42.699Z,75.98
2017-09-11T03:31:42.684Z,75.51
2017-09-11T03:32:42.677Z,76.08
2017-09-11T03:33:43.053Z,76.46
2017-09-11T03:34:42.660Z,75.70
2017-09-11T03:35:42.646Z,76.08
2017-09-11T03:36:42.633Z,76.37
2017-09-11T03:37:42.637Z,76.56
2017-09-11T03:38:42.617Z,76.37
2017-09-11T03:39:42.943Z,76.46
2017-09-11T03:40:42.601Z,76.18
2017-09-11T03:41:42.587Z,76.18
2017-09-11T03:42:42.581Z,76.37
2017-09-11T03:43:42.564Z,76.08
2017-09-11T03:44:42.551Z,75.79
2017-09-11T03:45:42.574Z,76.18
2017-09-11T03:46:42.539Z,76.27
2017-09-11T03:47:42.524Z,75.98
2017-09-11T03:48:42.961Z,75.98
2017-09-11T03:49:42.508Z,76.37
2017-09-11T03:50:42.493Z,76.46
2017-09-11T03:51:42.485Z,75.98
2017-09-11T03:52:42.475Z,75.89
2017-09-11T03:53:42.464Z,75.70
2017-09-11T03:54:42.898Z,75.12
2017-09-11T03:55:42.447Z,75.60
2017-09-11T03:56:42.433Z,75.51
2017-09-11T03:57:42.419Z,75.70
2017-09-11T03:58:42.413Z,75.89
2017-09-11T03:59:42.406Z,75.51
2017-09-11T04:00:42.425Z,75.31
2017-09-11T04:01:42.385Z,75.31
2017-09-11T04:02:42.368Z,75.41
2017-09-11T04:03:42.364Z,75.12
2017-09-11T04:04:42.349Z,75.70
2017-09-11T04:05:42.373Z,74.93
2017-09-11T04:06:42.329Z,75.41
2017-09-11T04:07:42.314Z,75.60
2017-09-11T04:08:42.310Z,75.41
2017-09-11T04:09:42.303Z,75.51
2017-09-11T04:10:42.377Z,75.98
2017-09-11T04:11:42.298Z,75.41
2017-09-11T04:12:42.274Z,75.70
2017-09-11T04:13:42.259Z,75.41
2017-09-11T04:14:42.245Z,75.31
2017-09-11T04:15:42.234Z,76.08
2017-09-11T04:16:42.655Z,75.51
2017-09-11T04:17:42.220Z,75.31
2017-09-11T04:18:42.218Z,75.31
2017-09-11T04:19:42.197Z,75.51
2017-09-11T04:20:42.196Z,75.70
2017-09-11T04:21:42.174Z,75.51
2017-09-11T04:22:42.469Z,75.79
2017-09-11T04:23:42.151Z,76.37
2017-09-11T04:24:42.147Z,76.18
2017-09-11T04:25:42.140Z,75.60
2017-09-11T04:26:42.123Z,75.51
2017-09-11T04:27:42.113Z,75.60
2017-09-11T04:28:42.488Z,75.41
2017-09-11T04:29:42.095Z,75.41
2017-09-11T04:30:42.083Z,75.89
2017-09-11T04:31:42.075Z,75.79
2017-09-11T04:32:42.062Z,75.70
2017-09-11T04:33:42.068Z,75.89
2017-09-11T04:34:42.344Z,75.51
2017-09-11T04:35:42.034Z,75.79
2017-09-11T04:36:42.018Z,75.79
2017-09-11T04:37:42.010Z,75.51
2017-09-11T04:38:42.003Z,75.70
2017-09-11T04:39:41.991Z,75.70
2017-09-11T04:40:42.429Z,75.98
2017-09-11T04:41:41.972Z,76.18
2017-09-11T04:42:41.969Z,76.46
2017-09-11T04:43:41.951Z,76.08
2017-09-11T04:44:41.950Z,76.27
2017-09-11T04:45:41.937Z,76.90
2017-09-11T04:46:42.132Z,77.48
2017-09-11T04:47:41.948Z,77.33
2017-09-11T04:48:41.903Z,77.51
2017-09-11T04:49:41.901Z,77.38
2017-09-11T04:50:41.889Z,77.09
2017-09-11T04:51:41.875Z,76.90
2017-09-11T04:52:41.898Z,77.48
2017-09-11T04:53:41.847Z,77.38
2017-09-11T04:54:41.843Z,76.62
2017-09-11T04:55:41.833Z,76.62
2017-09-11T04:56:41.817Z,77.19
2017-09-11T04:57:42.068Z,77.13
2017-09-11T04:58:41.797Z,77.28
2017-09-11T04:59:41.791Z,77.86
2017-09-11T05:00:41.774Z,78.05
2017-09-11T05:01:41.771Z,79.00
2017-09-11T05:02:41.761Z,79.10
2017-09-11T05:03:42.034Z,78.91
2017-09-11T05:04:41.745Z,79.87
2017-09-11T05:05:41.720Z,79.68
2017-09-11T05:06:41.716Z,80.06
2017-09-11T05:07:41.704Z,80.16
2017-09-11T05:08:41.694Z,80.35
2017-09-11T05:09:42.122Z,79.87
2017-09-11T05:10:41.672Z,80.06
2017-09-11T05:11:41.674Z,80.92
2017-09-11T05:12:41.652Z,80.73
2017-09-11T05:13:41.660Z,81.11
2017-09-11T05:14:41.632Z,81.59
2017-09-11T05:15:41.929Z,81.78
2017-09-11T05:16:41.608Z,81.78
2017-09-11T05:17:41.597Z,82.07
2017-09-11T05:18:41.589Z,81.40
2017-09-11T05:19:41.592Z,82.07
2017-09-11T05:20:41.580Z,82.07
2017-09-11T05:21:41.999Z,82.54
2017-09-11T05:22:41.552Z,82.45
2017-09-11T05:23:41.541Z,82.74
2017-09-11T05:24:41.524Z,83.03
2017-09-11T05:25:41.521Z,83.03
2017-09-11T05:26:41.501Z,83.56
2017-09-11T05:27:41.810Z,83.94
2017-09-11T05:28:41.484Z,83.65
2017-09-11T05:29:41.477Z,83.75
2017-09-11T05:30:41.464Z,83.56
2017-09-11T05:31:41.468Z,84.13
2017-09-11T05:32:41.441Z,83.94
2017-09-11T05:33:41.751Z,83.65
2017-09-11T05:34:41.423Z,83.75
2017-09-11T05:35:41.410Z,83.31
2017-09-11T05:36:41.406Z,83.46
2017-09-11T05:37:41.391Z,83.03
2017-09-11T05:38:41.378Z,82.83
2017-09-11T05:39:41.717Z,83.22
2017-09-11T05:40:41.363Z,82.45
2017-09-11T05:41:41.351Z,82.83
2017-09-11T05:42:41.348Z,82.54
2017-09-11T05:43:41.324Z,82.54
2017-09-11T05:44:41.315Z,82.07
2017-09-11T05:45:41.329Z,82.26
2017-09-11T05:46:41.290Z,82.07
2017-09-11T05:47:41.587Z,81.40
2017-09-11T05:48:41.280Z,82.45
2017-09-11T05:49:41.260Z,81.68
2017-09-11T05:50:41.254Z,81.88
2017-09-11T05:51:41.246Z,81.40
2017-09-11T05:52:41.230Z,81.59
2017-09-11T05:53:41.507Z,81.78
2017-09-11T05:54:41.218Z,81.59
2017-09-11T05:55:41.204Z,81.40
2017-09-11T05:56:41.202Z,81.21
2017-09-11T05:57:41.176Z,81.59
2017-09-11T05:58:41.169Z,80.73
2017-09-11T05:59:41.184Z,80.92
2017-09-11T06:00:41.154Z,81.21
2017-09-11T06:01:41.138Z,80.92
2017-09-11T06:02:41.139Z,81.30
2017-09-11T06:03:41.535Z,81.02
2017-09-11T06:04:41.114Z,80.92
2017-09-11T06:05:41.095Z,80.92
2017-09-11T06:06:41.092Z,81.02
2017-09-11T06:07:41.072Z,80.92
2017-09-11T06:08:41.071Z,80.73
2017-09-11T06:09:41.399Z,80.92
2017-09-11T06:10:41.038Z,81.02
2017-09-11T06:11:41.033Z,81.02
2017-09-11T06:12:41.026Z,81.05
2017-09-11T06:13:41.016Z,81.21
2017-09-11T06:14:41.000Z,80.48
2017-09-11T06:15:41.425Z,80.63
2017-09-11T06:16:40.980Z,80.63
2017-09-11T06:17:40.969Z,81.11
2017-09-11T06:18:40.965Z,80.35
2017-09-11T06:19:40.947Z,80.54
2017-09-11T06:20:40.947Z,80.92
2017-09-11T06:21:41.246Z,81.21
2017-09-11T06:22:40.918Z,81.11
2017-09-11T06:23:40.912Z,81.21
2017-09-11T06:24:40.895Z,81.49
2017-09-11T06:25:40.897Z,81.30
2017-09-11T06:26:40.885Z,82.07
2017-09-11T06:27:41.270Z,81.49
2017-09-11T06:28:40.859Z,82.45
2017-09-11T06:29:40.849Z,81.88
2017-09-11T06:30:40.829Z,82.45
2017-09-11T06:31:40.827Z,81.68
2017-09-11T06:32:40.826Z,81.68
2017-09-11T06:33:40.829Z,82.26
2017-09-11T06:34:40.804Z,81.49
2017-09-11T06:35:40.788Z,81.59
2017-09-11T06:36:40.771Z,81.59
2017-09-11T06:37:40.761Z,81.49
2017-09-11T06:38:41.097Z,82.45
2017-09-11T06:39:40.739Z,81.68
2017-09-11T06:40:40.735Z,81.68
2017-09-11T06:41:40.722Z,81.78
2017-09-11T06:42:40.707Z,81.68
2017-09-11T06:43:40.698Z,82.17
2017-09-11T06:44:41.145Z,81.88
2017-09-11T06:45:40.682Z,82.45
2017-09-11T06:46:40.679Z,82.17
2017-09-11T06:47:40.655Z,82.07
2017-09-11T06:48:40.653Z,81.88
2017-09-11T06:49:40.643Z,82.54
2017-09-11T06:50:41.079Z,81.88
2017-09-11T06:51:40.615Z,81.49
2017-09-11T06:52:40.605Z,81.88
2017-09-11T06:53:40.600Z,81.68
2017-09-11T06:54:40.586Z,81.88
2017-09-11T06:55:40.571Z,81.59
2017-09-11T06:56:40.936Z,81.40
2017-09-11T06:57:40.555Z,81.40
2017-09-11T06:58:40.544Z,82.07
2017-09-11T06:59:40.530Z,81.88
2017-09-11T07:00:40.526Z,81.68
2017-09-11T07:01:40.519Z,81.68
2017-09-11T07:02:40.881Z,81.49
2017-09-11T07:03:40.501Z,81.25
2017-09-11T07:04:40.479Z,80.44
2017-09-11T07:05:40.472Z,80.58
2017-09-11T07:06:40.458Z,81.02
2017-09-11T07:07:40.489Z,80.73
2017-09-11T07:08:40.746Z,80.63
2017-09-11T07:09:40.433Z,81.15
2017-09-11T07:10:40.415Z,80.29
2017-09-11T07:11:40.449Z,79.96
2017-09-11T07:12:40.404Z,80.25
2017-09-11T07:13:40.395Z,80.38
2017-09-11T07:14:40.606Z,81.15
2017-09-11T07:15:40.370Z,80.87
2017-09-11T07:16:40.368Z,81.34
2017-09-11T07:17:40.348Z,81.05
2017-09-11T07:18:40.350Z,81.25
2017-09-11T07:19:40.325Z,81.54
2017-09-11T07:20:40.527Z,81.73
2017-09-11T07:21:40.308Z,81.44
2017-09-11T07:22:40.301Z,80.58
2017-09-11T07:23:40.285Z,81.34
2017-09-11T07:24:40.280Z,81.05
2017-09-11T07:25:40.283Z,81.44
2017-09-11T07:26:40.296Z,81.05
2017-09-11T07:27:40.245Z,81.54
2017-09-11T07:28:40.245Z,81.82
2017-09-11T07:29:40.229Z,81.54
2017-09-11T07:30:40.429Z,81.63
2017-09-11T07:31:40.216Z,80.77
2017-09-11T07:32:40.203Z,81.25
2017-09-11T07:33:40.186Z,80.96
2017-09-11T07:34:40.180Z,81.25
2017-09-11T07:35:40.169Z,81.25
2017-09-11T07:36:40.201Z,80.87
2017-09-11T07:37:40.148Z,81.25
2017-09-11T07:39:01.155Z,81.25
2017-09-11T07:39:40.155Z,81.57
2017-09-11T07:40:40.118Z,81.44
2017-09-11T07:41:40.115Z,80.96
2017-09-11T07:42:40.099Z,81.25
2017-09-11T07:43:40.094Z,81.25
2017-09-11T07:44:40.309Z,80.67
2017-09-11T07:45:40.066Z,80.77
2017-09-11T07:46:40.062Z,80.96
2017-09-11T07:47:40.046Z,81.15
2017-09-11T07:48:40.040Z,81.34
2017-09-11T07:49:40.042Z,81.25
2017-09-11T07:50:40.233Z,81.34
2017-09-11T07:51:40.030Z,81.44
2017-09-11T07:52:40.000Z,81.34
2017-09-11T07:53:40.005Z,81.92
2017-09-11T07:54:39.977Z,81.92
2017-09-11T07:55:39.972Z,81.63
2017-09-11T07:56:39.990Z,82.40
2017-09-11T07:57:39.954Z,82.20
2017-09-11T07:58:39.947Z,82.11
2017-09-11T07:59:39.965Z,81.92
2017-09-11T08:00:39.930Z,82.20
2017-09-11T08:01:39.919Z,82.01
2017-09-11T08:02:39.903Z,82.30
2017-09-11T08:03:39.896Z,82.30
2017-09-11T08:04:40.217Z,82.97
2017-09-11T08:05:39.874Z,82.59
2017-09-11T08:06:39.858Z,82.20
2017-09-11T08:07:39.854Z,82.59
2017-09-11T08:08:39.854Z,82.97
2017-09-11T08:09:39.843Z,83.06
2017-09-11T08:10:39.869Z,82.30
2017-09-11T08:11:39.811Z,82.68
2017-09-11T08:12:39.797Z,82.87
2017-09-11T08:13:39.791Z,83.26
2017-09-11T08:14:40.213Z,82.97
2017-09-11T08:15:39.776Z,83.06
2017-09-11T08:16:39.761Z,83.54
2017-09-11T08:17:39.764Z,83.54
2017-09-11T08:18:39.742Z,83.69
2017-09-11T08:19:39.735Z,84.17
2017-09-11T08:20:39.751Z,84.17
2017-09-11T08:21:39.708Z,84.84
2017-09-11T08:22:39.706Z,84.17
2017-09-11T08:23:39.692Z,83.98
2017-09-11T08:24:39.692Z,84.27
2017-09-11T08:25:40.017Z,84.27
2017-09-11T08:26:39.667Z,84.65
2017-09-11T08:27:39.648Z,84.59
2017-09-11T08:28:39.641Z,84.59
2017-09-11T08:29:39.628Z,84.88
2017-09-11T08:30:39.617Z,84.41
2017-09-11T08:31:40.151Z,84.22
2017-09-11T08:32:39.630Z,84.12
2017-09-11T08:33:39.594Z,83.73
2017-09-11T08:34:39.582Z,84.02
2017-09-11T08:35:39.570Z,83.83
2017-09-11T08:36:39.557Z,84.02
2017-09-11T08:37:39.840Z,84.12
2017-09-11T08:38:39.534Z,84.59
2017-09-11T08:39:39.547Z,84.02
2017-09-11T08:40:39.517Z,84.22
2017-09-11T08:41:39.509Z,84.02
2017-09-11T08:42:39.492Z,84.50
2017-09-11T08:43:39.715Z,84.50
2017-09-11T08:44:39.477Z,84.59
2017-09-11T08:45:39.477Z,84.22
2017-09-11T08:46:39.460Z,83.93
2017-09-11T08:47:39.455Z,83.93
2017-09-11T08:48:39.436Z,83.54
2017-09-11T08:49:39.462Z,83.16
2017-09-11T08:50:39.414Z,83.06
2017-09-11T08:51:39.406Z,83.06
2017-09-11T08:52:39.398Z,82.97
2017-09-11T08:53:39.388Z,82.87
2017-09-11T08:54:39.374Z,82.68
2017-09-11T08:55:39.655Z,82.78
2017-09-11T08:56:39.357Z,82.87
2017-09-11T08:57:39.352Z,82.68
2017-09-11T08:58:39.340Z,82.97
2017-09-11T08:59:39.329Z,82.87
2017-09-11T09:00:39.325Z,83.16
2017-09-11T09:01:39.680Z,82.40
2017-09-11T09:02:39.320Z,81.82
2017-09-11T09:03:45.996Z,81.92
2017-09-11T09:04:39.292Z,83.26
2017-09-11T09:05:39.284Z,82.20
2017-09-11T09:06:39.271Z,82.40
2017-09-11T09:07:39.596Z,83.26
2017-09-11T09:08:39.936Z,82.97
2017-09-11T09:09:39.227Z,82.97
2017-09-11T09:10:39.230Z,82.59
2017-09-11T09:11:39.219Z,83.06
2017-09-11T09:12:39.210Z,83.45
2017-09-11T09:13:39.297Z,82.68
2017-09-11T09:14:39.186Z,82.59
2017-09-11T09:15:39.178Z,81.82
2017-09-11T09:16:39.192Z,82.06
2017-09-11T09:17:39.154Z,82.24
2017-09-11T09:18:39.178Z,81.77
2017-09-11T09:19:39.129Z,82.24
2017-09-11T09:20:39.133Z,82.15
2017-09-11T09:21:39.546Z,81.38
2017-09-11T09:22:39.108Z,81.20
2017-09-11T09:23:39.088Z,80.52
2017-09-11T09:24:39.080Z,79.37
2017-09-11T09:25:39.069Z,80.33
2017-09-11T09:26:39.071Z,79.75
2017-09-11T09:27:39.513Z,79.75
2017-09-11T09:28:39.044Z,79.08
2017-09-11T09:29:39.049Z,78.89
2017-09-11T09:30:39.024Z,79.37
2017-09-11T09:31:39.016Z,77.94
2017-09-11T09:32:39.006Z,77.94
2017-09-11T09:33:39.368Z,78.42
2017-09-11T09:34:39.002Z,79.18
2017-09-11T09:35:39.003Z,78.51
2017-09-11T09:36:38.966Z,78.51
2017-09-11T09:37:38.966Z,78.22
2017-09-11T09:38:38.945Z,77.88
2017-09-11T09:39:38.974Z,77.88
2017-09-11T09:40:38.932Z,78.93
2017-09-11T09:41:38.921Z,77.88
2017-09-11T09:42:38.912Z,76.44
2017-09-11T09:43:38.906Z,77.11
2017-09-11T09:44:38.891Z,75.87
2017-09-11T09:45:39.194Z,75.58
2017-09-11T09:46:38.877Z,75.58
2017-09-11T09:47:38.863Z,75.96
2017-09-11T09:48:38.861Z,75.48
2017-09-11T09:49:38.849Z,75.87
2017-09-11T09:50:38.832Z,76.06
2017-09-11T09:51:38.995Z,75.87
2017-09-11T09:52:38.836Z,77.02
2017-09-11T09:53:38.807Z,76.73
2017-09-11T09:54:38.816Z,75.48
2017-09-11T09:55:38.788Z,75.58
2017-09-11T09:56:38.778Z,75.77
2017-09-11T09:57:39.129Z,74.82
2017-09-11T09:58:38.766Z,73.86
2017-09-11T09:59:38.748Z,74.62
2017-09-11T10:00:38.752Z,74.62
2017-09-11T10:01:38.731Z,74.52
2017-09-11T10:02:38.737Z,75.58
2017-09-11T10:03:38.986Z,74.33
2017-09-11T10:04:38.705Z,73.38
2017-09-11T10:05:38.737Z,74.18
2017-09-11T10:06:38.685Z,73.51
2017-09-11T10:07:38.688Z,72.84
2017-09-11T10:08:38.672Z,71.40
2017-09-11T10:09:39.093Z,71.56
2017-09-11T10:10:38.647Z,71.94
2017-09-11T10:11:38.639Z,72.71
2017-09-11T10:12:38.632Z,73.47
2017-09-11T10:13:38.627Z,72.90
2017-09-11T10:14:38.627Z,72.23
2017-09-11T10:15:39.017Z,72.99
2017-09-11T10:16:38.607Z,71.84
2017-09-11T10:17:38.599Z,72.52
2017-09-11T10:18:38.584Z,72.13
2017-09-11T10:19:38.568Z,72.52
2017-09-11T10:20:38.554Z,73.19
2017-09-11T10:21:38.982Z,72.07
2017-09-11T10:22:38.535Z,73.61
2017-09-11T10:23:38.541Z,73.41
2017-09-11T10:24:38.519Z,73.03
2017-09-11T10:25:38.515Z,72.17
2017-09-11T10:26:38.522Z,72.64
2017-09-11T10:27:38.890Z,71.11
2017-09-11T10:28:38.484Z,69.68
2017-09-11T10:29:38.475Z,69.58
2017-09-11T10:30:38.463Z,69.96
2017-09-11T10:31:38.466Z,70.44
2017-09-11T10:32:38.452Z,70.35
2017-09-11T10:33:38.676Z,70.15
2017-09-11T10:34:38.428Z,70.83
2017-09-11T10:35:38.418Z,71.02
2017-09-11T10:36:38.412Z,71.78
2017-09-11T10:37:38.408Z,70.44
2017-09-11T10:38:38.392Z,68.43
2017-09-11T10:39:38.509Z,69.58
2017-09-11T10:40:38.378Z,71.15
2017-09-11T10:41:38.378Z,70.44
2017-09-11T10:42:38.382Z,69.62
2017-09-11T10:43:38.352Z,69.04
2017-09-11T10:44:38.366Z,68.18
2017-09-11T10:45:38.700Z,68.14
2017-09-11T10:46:38.323Z,67.89
2017-09-11T10:47:38.316Z,68.81
2017-09-11T10:48:38.306Z,68.52
2017-09-11T10:49:38.295Z,68.52
2017-09-11T10:50:38.294Z,67.85
2017-09-11T10:51:38.499Z,68.52
2017-09-11T10:52:38.282Z,69.20
2017-09-11T10:53:38.267Z,69.48
2017-09-11T10:54:38.256Z,69.20
2017-09-11T10:55:38.243Z,69.93
2017-09-11T10:56:38.249Z,71.27
2017-09-11T10:57:38.520Z,73.38
2017-09-11T10:58:38.230Z,74.82
2017-09-11T10:59:38.207Z,76.89
2017-09-11T11:00:38.203Z,77.75
2017-09-11T11:01:38.189Z,77.94
2017-09-11T11:02:38.183Z,79.28
2017-09-11T11:03:38.461Z,79.75
2017-09-11T11:04:38.175Z,80.24
2017-09-11T11:05:38.153Z,81.73
2017-09-11T11:06:38.144Z,81.82
2017-09-11T11:07:38.141Z,82.11
2017-09-11T11:08:38.120Z,82.49
2017-09-11T11:09:38.553Z,83.06
2017-09-11T11:10:38.110Z,83.26
2017-09-11T11:11:38.097Z,84.22
2017-09-11T11:12:38.082Z,83.45
2017-09-11T11:13:38.085Z,83.83
2017-09-11T11:14:38.068Z,83.93
2017-09-11T11:15:38.096Z,83.83
2017-09-11T11:16:38.075Z,85.55
2017-09-11T11:17:38.468Z,85.31
2017-09-11T11:18:38.027Z,85.12
2017-09-11T11:19:38.014Z,84.64
2017-09-11T11:20:38.007Z,84.06
2017-09-11T11:21:38.002Z,83.68
2017-09-11T11:22:37.991Z,84.06
2017-09-11T11:23:38.318Z,81.96
2017-09-11T11:24:37.963Z,83.11
2017-09-11T11:25:37.964Z,83.49
2017-09-11T11:26:37.956Z,83.01
2017-09-11T11:27:38.097Z,83.01
2017-09-11T11:28:37.932Z,83.11
2017-09-11T11:29:38.493Z,82.24
2017-09-11T11:30:37.908Z,82.24
2017-09-11T11:31:37.955Z,79.37
2017-09-11T11:32:37.895Z,77.65
2017-09-11T11:33:37.880Z,77.84
2017-09-11T11:34:38.219Z,78.22
2017-09-11T11:35:37.866Z,79.47
2017-09-11T11:36:37.855Z,79.75
2017-09-11T11:37:37.840Z,77.26
2017-09-11T11:38:37.835Z,78.89
2017-09-11T11:39:37.825Z,75.93
2017-09-11T11:40:38.175Z,74.77
2017-09-11T11:41:37.811Z,76.50
2017-09-11T11:42:37.800Z,77.26
2017-09-11T11:43:37.793Z,78.80
2017-09-11T11:44:37.774Z,79.18
2017-09-11T11:45:37.766Z,77.75
2017-09-11T11:46:38.223Z,78.17
2017-09-11T11:47:37.747Z,75.39
2017-09-11T11:48:37.750Z,76.06
2017-09-11T11:49:37.731Z,76.82
2017-09-11T11:50:37.716Z,75.96
2017-09-11T11:51:37.707Z,75.77
2017-09-11T11:52:38.076Z,76.64
2017-09-11T11:53:37.693Z,76.06
2017-09-11T11:54:37.682Z,77.59
2017-09-11T11:55:37.672Z,77.53
2017-09-11T11:56:37.695Z,76.48
2017-09-11T11:57:37.650Z,76.19
2017-09-11T11:58:38.098Z,76.48
2017-09-11T11:59:37.637Z,76.00
2017-09-11T12:00:37.628Z,73.61
2017-09-11T12:01:37.626Z,72.07
2017-09-11T12:02:37.608Z,70.73
2017-09-11T12:03:37.596Z,70.25
2017-09-11T12:04:37.615Z,71.50
2017-09-11T12:05:37.583Z,71.59
2017-09-11T12:06:37.580Z,72.27
2017-09-11T12:07:37.564Z,72.64
2017-09-11T12:08:37.598Z,69.48
2017-09-11T12:09:37.542Z,70.25
2017-09-11T12:10:37.532Z,68.24
2017-09-11T12:11:37.533Z,68.43
2017-09-11T12:12:37.514Z,68.46
2017-09-11T12:13:37.882Z,68.56
2017-09-11T12:14:37.502Z,67.89
2017-09-11T12:15:37.502Z,69.42
2017-09-11T12:16:37.482Z,68.37
2017-09-11T12:17:37.480Z,66.83
2017-09-11T12:18:37.460Z,66.55
2017-09-11T12:19:37.491Z,66.64
2017-09-11T12:20:37.446Z,68.75
2017-09-11T12:21:37.438Z,67.89
2017-09-11T12:22:37.431Z,64.72
2017-09-11T12:23:37.775Z,66.45
2017-09-11T12:24:37.413Z,64.37
2017-09-11T12:25:37.401Z,64.43
2017-09-11T12:26:37.417Z,64.72
2017-09-11T12:27:37.398Z,65.59
2017-09-11T12:28:37.379Z,66.64
2017-09-11T12:29:37.395Z,65.20
2017-09-11T12:30:37.363Z,64.63
2017-09-11T12:31:37.358Z,65.59
2017-09-11T12:32:37.358Z,64.47
2017-09-11T12:33:37.717Z,64.09
2017-09-11T12:34:37.327Z,64.43
2017-09-11T12:35:37.323Z,65.72
2017-09-11T12:36:37.316Z,65.72
2017-09-11T12:37:37.312Z,64.18
2017-09-11T12:38:37.306Z,64.95
2017-09-11T12:39:37.707Z,64.95
2017-09-11T12:40:37.277Z,64.47
2017-09-11T12:41:37.278Z,64.56
2017-09-11T12:42:37.266Z,64.09
2017-09-11T12:43:37.250Z,64.56
2017-09-11T12:44:37.242Z,65.33
2017-09-11T12:45:37.648Z,65.14
2017-09-11T12:46:37.232Z,65.33
2017-09-11T12:47:37.225Z,65.33
2017-09-11T12:48:37.217Z,66.19
2017-09-11T12:49:37.206Z,65.43
2017-09-11T12:50:37.197Z,62.45
2017-09-11T12:51:37.227Z,63.51
2017-09-11T12:52:37.176Z,63.42